KJCA

Jackson County Airport

Jefferson, Georgia, USA
METAR KJCA 212135Z AUTO 30007KT 10SM -RA SCT039 SCT080 BKN110 24/22 A2985 RMK AO2 LTG DSNT N AND E P0004 T02360224
Observed Flight Rules
Jun-21 @ 21:35 UTC (32 minutes ago) Visual Flight Rules
Wind Visibility Clouds Conditions
300° at 7 knots 10 miles
  • Scattered at 3,900' AGL
  • Scattered at 8,000' AGL
  • Broken at 11,000' AGL
  • Light Rain
Temperatures Readings Precipitation
Current 24°C / 75°F
Dewpoint 22°C / 72°F
Humidity 89%
Altimeter 29.85" Hg
Pressure 1011 hPa
Elevation 290
Current Rain 0.04
METAR KJCA 212135Z AUTO 30007KT 10SM -RA SCT039 SCT080 BKN110 24/22 A2985 RMK AO2 LTG DSNT N AND E P0004 T02360224
Observed Flight Rules
Jun-21 @ 21:35 UTC
(32 minutes ago)
VFR
Wind Visibility
300° at 7 knots 10 miles
Clouds
  • Scattered at 3,900' AGL
  • Scattered at 8,000' AGL
  • Broken at 11,000' AGL
Conditions
  • Light Rain
Temperature Dewpoint
24°C / 75°F 22°C / 72°F
Humidity Altimeter Pressure
89% 29.85" Hg 1011 hPa
Current Rain
0.04